sensor_id;sensor_type;location;lat;lon;timestamp;temperature;humidity
7796;DHT22;3942;51.518;6.912;2023-07-16T00:21:13;20.50;99.90
7796;DHT22;3942;51.518;6.912;2023-07-16T00:26:15;20.40;99.90
7796;DHT22;3942;51.518;6.912;2023-07-16T00:46:25;20.40;99.90
7796;DHT22;3942;51.518;6.912;2023-07-16T01:11:41;20.20;99.90
7796;DHT22;3942;51.518;6.912;2023-07-16T01:31:59;19.10;99.90
7796;DHT22;3942;51.518;6.912;2023-07-16T01:42:09;18.80;99.90
7796;DHT22;3942;51.518;6.912;2023-07-16T01:47:40;19.10;99.90
7796;DHT22;3942;51.518;6.912;2023-07-16T02:08:09;19.20;99.90
7796;DHT22;3942;51.518;6.912;2023-07-16T02:28:21;19.40;99.90
7796;DHT22;3942;51.518;6.912;2023-07-16T02:38:29;18.70;99.90
7796;DHT22;3942;51.518;6.912;2023-07-16T03:09:27;18.80;99.90
7796;DHT22;3942;51.518;6.912;2023-07-16T03:24:45;18.80;99.90
7796;DHT22;3942;51.518;6.912;2023-07-16T03:50:20;18.60;1.00
7796;DHT22;3942;51.518;6.912;2023-07-16T03:55:24;18.60;99.90
7796;DHT22;3942;51.518;6.912;2023-07-16T04:05:34;18.60;1.00
7796;DHT22;3942;51.518;6.912;2023-07-16T04:25:54;18.90;99.90
7796;DHT22;3942;51.518;6.912;2023-07-16T04:30:56;19.30;1.00
7796;DHT22;3942;51.518;6.912;2023-07-16T04:51:13;19.70;99.90
7796;DHT22;3942;51.518;6.912;2023-07-16T04:56:16;19.80;99.90
7796;DHT22;3942;51.518;6.912;2023-07-16T05:51:54;21.50;99.90
7796;DHT22;3942;51.518;6.912;2023-07-16T06:01:58;22.30;99.90
7796;DHT22;3942;51.518;6.912;2023-07-16T06:07:02;22.60;64.40
7796;DHT22;3942;51.518;6.912;2023-07-16T06:12:04;22.70;1.00
7796;DHT22;3942;51.518;6.912;2023-07-16T06:17:06;23.40;1.00
7796;DHT22;3942;51.518;6.912;2023-07-16T06:22:10;22.60;1.00
7796;DHT22;3942;51.518;6.912;2023-07-16T06:27:11;23.30;1.00
7796;DHT22;3942;51.518;6.912;2023-07-16T08:38:23;24.50;99.90
7796;DHT22;3942;51.518;6.912;2023-07-16T08:43:25;24.80;99.90
7796;DHT22;3942;51.518;6.912;2023-07-16T08:48:28;23.90;99.90
7796;DHT22;3942;51.518;6.912;2023-07-16T08:53:31;23.70;99.90
7796;DHT22;3942;51.518;6.912;2023-07-16T09:03:35;23.50;99.90
7796;DHT22;3942;51.518;6.912;2023-07-16T09:13:44;23.90;99.90
7796;DHT22;3942;51.518;6.912;2023-07-16T09:23:49;23.90;99.90
7796;DHT22;3942;51.518;6.912;2023-07-16T09:33:53;24.50;99.90
7796;DHT22;3942;51.518;6.912;2023-07-16T09:39:01;24.30;99.90
7796;DHT22;3942;51.518;6.912;2023-07-16T09:44:03;24.30;99.90
7796;DHT22;3942;51.518;6.912;2023-07-16T09:54:11;24.00;99.90
7796;DHT22;3942;51.518;6.912;2023-07-16T09:59:16;24.30;99.90
7796;DHT22;3942;51.518;6.912;2023-07-16T10:04:19;24.60;99.90
7796;DHT22;3942;51.518;6.912;2023-07-16T10:09:39;24.10;99.90
7796;DHT22;3942;51.518;6.912;2023-07-16T10:14:42;23.90;99.90
7796;DHT22;3942;51.518;6.912;2023-07-16T10:20:05;24.40;99.90
7796;DHT22;3942;51.518;6.912;2023-07-16T10:25:22;23.80;99.90
7796;DHT22;3942;51.518;6.912;2023-07-16T10:40:30;24.20;99.90
7796;DHT22;3942;51.518;6.912;2023-07-16T10:50:35;24.30;99.90
7796;DHT22;3942;51.518;6.912;2023-07-16T10:55:41;24.40;99.90
7796;DHT22;3942;51.518;6.912;2023-07-16T11:00:44;24.20;99.90
7796;DHT22;3942;51.518;6.912;2023-07-16T11:10:55;23.90;99.90
7796;DHT22;3942;51.518;6.912;2023-07-16T11:26:03;23.90;99.90
7796;DHT22;3942;51.518;6.912;2023-07-16T11:31:13;24.20;99.90
7796;DHT22;3942;51.518;6.912;2023-07-16T11:36:16;23.90;99.90
7796;DHT22;3942;51.518;6.912;2023-07-16T11:41:21;23.60;99.90
7796;DHT22;3942;51.518;6.912;2023-07-16T11:56:29;23.60;99.90
7796;DHT22;3942;51.518;6.912;2023-07-16T12:11:37;24.30;99.90
7796;DHT22;3942;51.518;6.912;2023-07-16T12:17:18;24.10;99.90
7796;DHT22;3942;51.518;6.912;2023-07-16T12:22:21;24.00;99.90
7796;DHT22;3942;51.518;6.912;2023-07-16T13:15:10;24.30;99.90
7796;DHT22;3942;51.518;6.912;2023-07-16T13:20:15;24.10;99.90
7796;DHT22;3942;51.518;6.912;2023-07-16T13:25:26;24.20;99.90
7796;DHT22;3942;51.518;6.912;2023-07-16T13:36:32;24.40;99.90
7796;DHT22;3942;51.518;6.912;2023-07-16T13:41:34;24.50;99.90
7796;DHT22;3942;51.518;6.912;2023-07-16T13:46:41;24.50;99.90
7796;DHT22;3942;51.518;6.912;2023-07-16T13:51:47;24.60;99.90
7796;DHT22;3942;51.518;6.912;2023-07-16T13:56:49;24.00;99.90
7796;DHT22;3942;51.518;6.912;2023-07-16T14:01:59;24.80;99.90
7796;DHT22;3942;51.518;6.912;2023-07-16T14:07:03;24.70;99.90
7796;DHT22;3942;51.518;6.912;2023-07-16T14:12:05;24.70;99.90
7796;DHT22;3942;51.518;6.912;2023-07-16T14:17:08;24.50;99.90
7796;DHT22;3942;51.518;6.912;2023-07-16T14:22:11;24.70;99.90
7796;DHT22;3942;51.518;6.912;2023-07-16T14:27:15;24.60;99.90
7796;DHT22;3942;51.518;6.912;2023-07-16T14:32:18;24.50;99.90
7796;DHT22;3942;51.518;6.912;2023-07-16T14:37:21;24.40;99.90
7796;DHT22;3942;51.518;6.912;2023-07-16T14:42:23;24.20;99.90
7796;DHT22;3942;51.518;6.912;2023-07-16T14:47:25;24.60;99.90
7796;DHT22;3942;51.518;6.912;2023-07-16T14:52:29;24.70;99.90
7796;DHT22;3942;51.518;6.912;2023-07-16T14:57:31;24.70;99.90
7796;DHT22;3942;51.518;6.912;2023-07-16T15:02:32;24.60;99.90
7796;DHT22;3942;51.518;6.912;2023-07-16T15:07:36;24.70;99.90
7796;DHT22;3942;51.518;6.912;2023-07-16T15:12:38;24.70;99.90
7796;DHT22;3942;51.518;6.912;2023-07-16T15:17:41;25.00;99.90
7796;DHT22;3942;51.518;6.912;2023-07-16T15:22:47;25.10;99.90
7796;DHT22;3942;51.518;6.912;2023-07-16T15:27:49;24.80;99.90
7796;DHT22;3942;51.518;6.912;2023-07-16T15:32:51;24.60;99.90
7796;DHT22;3942;51.518;6.912;2023-07-16T15:37:54;24.80;99.90
7796;DHT22;3942;51.518;6.912;2023-07-16T15:42:57;24.70;99.90
7796;DHT22;3942;51.518;6.912;2023-07-16T15:47:59;24.80;99.90
7796;DHT22;3942;51.518;6.912;2023-07-16T15:53:03;25.00;99.90
7796;DHT22;3942;51.518;6.912;2023-07-16T15:58:27;25.10;99.90
7796;DHT22;3942;51.518;6.912;2023-07-16T16:03:29;25.10;99.90
7796;DHT22;3942;51.518;6.912;2023-07-16T16:08:33;24.60;99.90
7796;DHT22;3942;51.518;6.912;2023-07-16T16:13:36;24.70;99.90
7796;DHT22;3942;51.518;6.912;2023-07-16T16:18:39;24.50;99.90
7796;DHT22;3942;51.518;6.912;2023-07-16T16:23:43;24.50;99.90
7796;DHT22;3942;51.518;6.912;2023-07-16T16:28:44;24.40;99.90
7796;DHT22;3942;51.518;6.912;2023-07-16T16:33:46;24.50;99.90
7796;DHT22;3942;51.518;6.912;2023-07-16T16:38:50;24.40;99.90
7796;DHT22;3942;51.518;6.912;2023-07-16T16:43:52;24.50;99.90
7796;DHT22;3942;51.518;6.912;2023-07-16T16:48:56;25.80;99.90
7796;DHT22;3942;51.518;6.912;2023-07-16T16:53:59;24.40;99.90
7796;DHT22;3942;51.518;6.912;2023-07-16T16:59:01;24.40;99.90
7796;DHT22;3942;51.518;6.912;2023-07-16T17:04:06;24.30;99.90
7796;DHT22;3942;51.518;6.912;2023-07-16T17:09:09;24.40;99.90
7796;DHT22;3942;51.518;6.912;2023-07-16T17:14:12;24.40;99.90
7796;DHT22;3942;51.518;6.912;2023-07-16T17:19:14;24.50;99.90
7796;DHT22;3942;51.518;6.912;2023-07-16T17:24:18;23.90;99.90
7796;DHT22;3942;51.518;6.912;2023-07-16T17:29:20;24.20;99.90
7796;DHT22;3942;51.518;6.912;2023-07-16T17:34:22;24.40;99.90
7796;DHT22;3942;51.518;6.912;2023-07-16T17:39:25;24.20;99.90
7796;DHT22;3942;51.518;6.912;2023-07-16T17:44:28;24.30;99.90
7796;DHT22;3942;51.518;6.912;2023-07-16T17:49:30;24.20;99.90
7796;DHT22;3942;51.518;6.912;2023-07-16T17:54:34;24.10;99.90
7796;DHT22;3942;51.518;6.912;2023-07-16T17:59:36;24.10;99.90
7796;DHT22;3942;51.518;6.912;2023-07-16T18:04:38;23.90;99.90
7796;DHT22;3942;51.518;6.912;2023-07-16T18:09:41;24.00;99.90
7796;DHT22;3942;51.518;6.912;2023-07-16T18:14:43;24.00;99.90
7796;DHT22;3942;51.518;6.912;2023-07-16T18:19:45;24.00;99.90
7796;DHT22;3942;51.518;6.912;2023-07-16T18:24:48;24.00;99.90
7796;DHT22;3942;51.518;6.912;2023-07-16T18:29:50;24.10;99.90
7796;DHT22;3942;51.518;6.912;2023-07-16T18:34:52;23.90;99.90
7796;DHT22;3942;51.518;6.912;2023-07-16T18:39:56;23.90;99.90
7796;DHT22;3942;51.518;6.912;2023-07-16T18:44:58;23.90;99.90
7796;DHT22;3942;51.518;6.912;2023-07-16T18:50:02;23.80;99.90
7796;DHT22;3942;51.518;6.912;2023-07-16T18:55:08;24.00;99.90
7796;DHT22;3942;51.518;6.912;2023-07-16T19:00:10;23.60;99.90
7796;DHT22;3942;51.518;6.912;2023-07-16T19:05:12;23.70;99.90
7796;DHT22;3942;51.518;6.912;2023-07-16T19:10:16;23.70;99.90
7796;DHT22;3942;51.518;6.912;2023-07-16T19:15:18;23.80;99.90
7796;DHT22;3942;51.518;6.912;2023-07-16T19:20:20;23.60;99.90
7796;DHT22;3942;51.518;6.912;2023-07-16T19:25:23;23.70;99.90
7796;DHT22;3942;51.518;6.912;2023-07-16T19:30:25;23.70;99.90
7796;DHT22;3942;51.518;6.912;2023-07-16T19:35:27;23.60;99.90
7796;DHT22;3942;51.518;6.912;2023-07-16T19:40:30;23.70;99.90
7796;DHT22;3942;51.518;6.912;2023-07-16T19:45:33;23.60;99.90
7796;DHT22;3942;51.518;6.912;2023-07-16T19:50:35;23.50;99.90
7796;DHT22;3942;51.518;6.912;2023-07-16T19:55:38;23.40;99.90
7796;DHT22;3942;51.518;6.912;2023-07-16T20:00:42;23.30;99.90
7796;DHT22;3942;51.518;6.912;2023-07-16T20:05:44;23.30;99.90
7796;DHT22;3942;51.518;6.912;2023-07-16T20:10:48;23.20;99.90
7796;DHT22;3942;51.518;6.912;2023-07-16T20:15:50;23.20;99.90
7796;DHT22;3942;51.518;6.912;2023-07-16T20:20:52;23.10;99.90
7796;DHT22;3942;51.518;6.912;2023-07-16T20:26:22;23.00;99.90
7796;DHT22;3942;51.518;6.912;2023-07-16T20:31:44;22.90;99.90
7796;DHT22;3942;51.518;6.912;2023-07-16T20:36:46;22.90;99.90
7796;DHT22;3942;51.518;6.912;2023-07-16T20:41:50;22.90;99.90
7796;DHT22;3942;51.518;6.912;2023-07-16T20:46:52;22.60;99.90
7796;DHT22;3942;51.518;6.912;2023-07-16T20:51:54;21.90;99.90
7796;DHT22;3942;51.518;6.912;2023-07-16T20:56:57;22.50;99.90
7796;DHT22;3942;51.518;6.912;2023-07-16T21:02:02;22.60;99.90
7796;DHT22;3942;51.518;6.912;2023-07-16T21:07:04;22.40;99.90
7796;DHT22;3942;51.518;6.912;2023-07-16T21:12:07;22.50;99.90
7796;DHT22;3942;51.518;6.912;2023-07-16T21:17:12;22.50;99.90
7796;DHT22;3942;51.518;6.912;2023-07-16T21:22:14;22.50;99.90
7796;DHT22;3942;51.518;6.912;2023-07-16T21:27:22;22.10;99.90
7796;DHT22;3942;51.518;6.912;2023-07-16T21:32:26;22.20;99.90
7796;DHT22;3942;51.518;6.912;2023-07-16T21:37:28;22.20;99.90
7796;DHT22;3942;51.518;6.912;2023-07-16T21:42:31;22.20;99.90
7796;DHT22;3942;51.518;6.912;2023-07-16T21:47:33;22.10;99.90
7796;DHT22;3942;51.518;6.912;2023-07-16T21:52:35;22.00;99.90
7796;DHT22;3942;51.518;6.912;2023-07-16T21:57:38;22.00;99.90
7796;DHT22;3942;51.518;6.912;2023-07-16T22:02:40;22.00;99.90
7796;DHT22;3942;51.518;6.912;2023-07-16T22:07:42;21.80;99.90
7796;DHT22;3942;51.518;6.912;2023-07-16T22:12:46;21.60;99.90
7796;DHT22;3942;51.518;6.912;2023-07-16T22:17:48;21.70;99.90
7796;DHT22;3942;51.518;6.912;2023-07-16T22:22:49;21.60;99.90
7796;DHT22;3942;51.518;6.912;2023-07-16T22:27:53;21.60;99.90
7796;DHT22;3942;51.518;6.912;2023-07-16T22:32:55;21.50;99.90
7796;DHT22;3942;51.518;6.912;2023-07-16T22:37:57;21.50;99.90
7796;DHT22;3942;51.518;6.912;2023-07-16T22:43:00;21.40;99.90
7796;DHT22;3942;51.518;6.912;2023-07-16T22:48:02;21.50;99.90
7796;DHT22;3942;51.518;6.912;2023-07-16T22:53:04;21.40;99.90
7796;DHT22;3942;51.518;6.912;2023-07-16T22:58:07;21.40;99.90
7796;DHT22;3942;51.518;6.912;2023-07-16T23:03:09;21.50;99.90
7796;DHT22;3942;51.518;6.912;2023-07-16T23:08:11;21.40;99.90
7796;DHT22;3942;51.518;6.912;2023-07-16T23:13:14;21.30;99.90
7796;DHT22;3942;51.518;6.912;2023-07-16T23:18:16;21.20;99.90
7796;DHT22;3942;51.518;6.912;2023-07-16T23:23:18;21.20;99.90
7796;DHT22;3942;51.518;6.912;2023-07-16T23:28:22;21.20;99.90
7796;DHT22;3942;51.518;6.912;2023-07-16T23:33:24;21.00;99.90
7796;DHT22;3942;51.518;6.912;2023-07-16T23:38:26;21.00;99.90
7796;DHT22;3942;51.518;6.912;2023-07-16T23:43:29;21.00;99.90
7796;DHT22;3942;51.518;6.912;2023-07-16T23:48:30;20.80;1.00
7796;DHT22;3942;51.518;6.912;2023-07-16T23:53:32;20.10;1.00
7796;DHT22;3942;51.518;6.912;2023-07-16T23:58:35;20.60;1.00
